sensor_id;sensor_type;location;lat;lon;timestamp;temperature;humidity
54429;DHT22;40337;52.978;6.310;2023-08-31T00:00:43;11.70;99.90
54429;DHT22;40337;52.978;6.310;2023-08-31T00:03:09;11.70;99.90
54429;DHT22;40337;52.978;6.310;2023-08-31T00:05:40;11.70;99.90
54429;DHT22;40337;52.978;6.310;2023-08-31T00:08:06;11.80;99.90
54429;DHT22;40337;52.978;6.310;2023-08-31T00:10:32;11.80;99.90
54429;DHT22;40337;52.978;6.310;2023-08-31T00:12:58;11.80;99.90
54429;DHT22;40337;52.978;6.310;2023-08-31T00:15:23;11.80;99.90
54429;DHT22;40337;52.978;6.310;2023-08-31T00:17:49;11.80;99.90
54429;DHT22;40337;52.978;6.310;2023-08-31T00:20:15;11.80;99.90
54429;DHT22;40337;52.978;6.310;2023-08-31T00:22:41;11.80;99.90
54429;DHT22;40337;52.978;6.310;2023-08-31T00:25:07;11.70;99.90
54429;DHT22;40337;52.978;6.310;2023-08-31T00:27:34;11.70;99.90
54429;DHT22;40337;52.978;6.310;2023-08-31T00:29:59;11.70;99.90
54429;DHT22;40337;52.978;6.310;2023-08-31T00:32:25;11.60;99.90
54429;DHT22;40337;52.978;6.310;2023-08-31T00:34:51;11.60;99.90
54429;DHT22;40337;52.978;6.310;2023-08-31T00:37:16;11.60;99.90
54429;DHT22;40337;52.978;6.310;2023-08-31T00:39:42;11.60;99.90
54429;DHT22;40337;52.978;6.310;2023-08-31T00:42:09;11.50;99.90
54429;DHT22;40337;52.978;6.310;2023-08-31T00:44:35;11.50;99.90
54429;DHT22;40337;52.978;6.310;2023-08-31T00:47:00;11.50;99.90
54429;DHT22;40337;52.978;6.310;2023-08-31T00:49:28;11.50;99.90
54429;DHT22;40337;52.978;6.310;2023-08-31T00:51:53;11.50;99.90
54429;DHT22;40337;52.978;6.310;2023-08-31T00:54:20;11.40;99.90
54429;DHT22;40337;52.978;6.310;2023-08-31T00:56:54;11.40;99.90
54429;DHT22;40337;52.978;6.310;2023-08-31T00:59:20;11.40;99.90
54429;DHT22;40337;52.978;6.310;2023-08-31T01:05:01;11.30;99.90
54429;DHT22;40337;52.978;6.310;2023-08-31T01:07:38;11.30;99.90
54429;DHT22;40337;52.978;6.310;2023-08-31T01:13:12;11.20;99.90
54429;DHT22;40337;52.978;6.310;2023-08-31T01:15:41;11.20;99.90
54429;DHT22;40337;52.978;6.310;2023-08-31T01:18:10;11.20;99.90
54429;DHT22;40337;52.978;6.310;2023-08-31T01:20:46;11.20;99.90
54429;DHT22;40337;52.978;6.310;2023-08-31T01:23:19;11.20;99.90
54429;DHT22;40337;52.978;6.310;2023-08-31T01:25:46;11.10;99.90
54429;DHT22;40337;52.978;6.310;2023-08-31T01:28:13;11.10;99.90
54429;DHT22;40337;52.978;6.310;2023-08-31T01:30:39;11.20;99.90
54429;DHT22;40337;52.978;6.310;2023-08-31T01:33:05;11.20;99.90
54429;DHT22;40337;52.978;6.310;2023-08-31T01:35:38;11.10;99.90
54429;DHT22;40337;52.978;6.310;2023-08-31T01:38:07;11.10;99.90
54429;DHT22;40337;52.978;6.310;2023-08-31T01:41:00;11.10;99.90
54429;DHT22;40337;52.978;6.310;2023-08-31T01:43:28;11.10;99.90
54429;DHT22;40337;52.978;6.310;2023-08-31T01:45:55;11.00;99.90
54429;DHT22;40337;52.978;6.310;2023-08-31T01:48:21;11.00;99.90
54429;DHT22;40337;52.978;6.310;2023-08-31T01:50:46;11.00;99.90
54429;DHT22;40337;52.978;6.310;2023-08-31T01:53:12;11.00;99.90
54429;DHT22;40337;52.978;6.310;2023-08-31T01:55:38;11.10;99.90
54429;DHT22;40337;52.978;6.310;2023-08-31T01:58:03;11.10;99.90
54429;DHT22;40337;52.978;6.310;2023-08-31T02:00:29;11.10;99.90
54429;DHT22;40337;52.978;6.310;2023-08-31T02:03:00;11.10;99.90
54429;DHT22;40337;52.978;6.310;2023-08-31T02:05:25;11.10;99.90
54429;DHT22;40337;52.978;6.310;2023-08-31T02:07:51;11.10;99.90
54429;DHT22;40337;52.978;6.310;2023-08-31T02:10:16;11.10;99.90
54429;DHT22;40337;52.978;6.310;2023-08-31T02:12:42;11.10;99.90
54429;DHT22;40337;52.978;6.310;2023-08-31T02:15:07;11.10;99.90
54429;DHT22;40337;52.978;6.310;2023-08-31T02:17:34;11.10;99.90
54429;DHT22;40337;52.978;6.310;2023-08-31T02:20:00;11.10;99.90
54429;DHT22;40337;52.978;6.310;2023-08-31T02:22:27;11.10;99.90
54429;DHT22;40337;52.978;6.310;2023-08-31T02:24:52;11.10;99.90
54429;DHT22;40337;52.978;6.310;2023-08-31T02:27:18;11.10;99.90
54429;DHT22;40337;52.978;6.310;2023-08-31T02:29:43;11.10;99.90
54429;DHT22;40337;52.978;6.310;2023-08-31T02:32:09;11.10;99.90
54429;DHT22;40337;52.978;6.310;2023-08-31T02:34:34;11.10;99.90
54429;DHT22;40337;52.978;6.310;2023-08-31T02:37:00;11.10;99.90
54429;DHT22;40337;52.978;6.310;2023-08-31T02:39:25;11.10;99.90
54429;DHT22;40337;52.978;6.310;2023-08-31T02:41:51;11.10;99.90
54429;DHT22;40337;52.978;6.310;2023-08-31T02:44:17;11.10;99.90
54429;DHT22;40337;52.978;6.310;2023-08-31T02:46:43;11.10;99.90
54429;DHT22;40337;52.978;6.310;2023-08-31T02:49:08;11.10;99.90
54429;DHT22;40337;52.978;6.310;2023-08-31T02:51:34;11.10;99.90
54429;DHT22;40337;52.978;6.310;2023-08-31T02:53:59;11.00;99.90
54429;DHT22;40337;52.978;6.310;2023-08-31T02:56:25;11.00;99.90
54429;DHT22;40337;52.978;6.310;2023-08-31T02:58:51;11.00;99.90
54429;DHT22;40337;52.978;6.310;2023-08-31T03:01:16;11.10;99.90
54429;DHT22;40337;52.978;6.310;2023-08-31T03:03:42;11.00;99.90
54429;DHT22;40337;52.978;6.310;2023-08-31T03:06:09;11.00;99.90
54429;DHT22;40337;52.978;6.310;2023-08-31T03:08:36;11.10;99.90
54429;DHT22;40337;52.978;6.310;2023-08-31T03:11:03;11.00;99.90
54429;DHT22;40337;52.978;6.310;2023-08-31T03:13:29;11.10;99.90
54429;DHT22;40337;52.978;6.310;2023-08-31T03:15:55;11.00;99.90
54429;DHT22;40337;52.978;6.310;2023-08-31T03:18:22;11.00;99.90
54429;DHT22;40337;52.978;6.310;2023-08-31T03:20:48;11.00;99.90
54429;DHT22;40337;52.978;6.310;2023-08-31T03:23:13;11.10;99.90
54429;DHT22;40337;52.978;6.310;2023-08-31T03:25:39;11.10;99.90
54429;DHT22;40337;52.978;6.310;2023-08-31T03:28:05;11.10;99.90
54429;DHT22;40337;52.978;6.310;2023-08-31T03:30:31;11.10;99.90
54429;DHT22;40337;52.978;6.310;2023-08-31T03:32:56;11.20;99.90
54429;DHT22;40337;52.978;6.310;2023-08-31T03:35:22;11.20;99.90
54429;DHT22;40337;52.978;6.310;2023-08-31T03:37:55;11.20;99.90
54429;DHT22;40337;52.978;6.310;2023-08-31T03:40:21;11.20;99.90
54429;DHT22;40337;52.978;6.310;2023-08-31T03:42:48;11.20;99.90
54429;DHT22;40337;52.978;6.310;2023-08-31T03:45:14;11.20;99.90
54429;DHT22;40337;52.978;6.310;2023-08-31T03:47:40;11.20;99.90
54429;DHT22;40337;52.978;6.310;2023-08-31T03:50:06;11.20;99.90
54429;DHT22;40337;52.978;6.310;2023-08-31T03:52:32;11.20;99.90
54429;DHT22;40337;52.978;6.310;2023-08-31T03:54:57;11.20;99.90
54429;DHT22;40337;52.978;6.310;2023-08-31T03:57:23;11.20;99.90
54429;DHT22;40337;52.978;6.310;2023-08-31T03:59:48;11.20;99.90
54429;DHT22;40337;52.978;6.310;2023-08-31T04:02:14;11.20;99.90
54429;DHT22;40337;52.978;6.310;2023-08-31T04:04:40;11.20;99.90
54429;DHT22;40337;52.978;6.310;2023-08-31T04:07:05;11.20;99.90
54429;DHT22;40337;52.978;6.310;2023-08-31T04:09:32;11.20;99.90
54429;DHT22;40337;52.978;6.310;2023-08-31T04:11:57;11.20;99.90
54429;DHT22;40337;52.978;6.310;2023-08-31T04:14:25;11.20;99.90
54429;DHT22;40337;52.978;6.310;2023-08-31T04:16:51;11.20;99.90
54429;DHT22;40337;52.978;6.310;2023-08-31T04:19:17;11.20;99.90
54429;DHT22;40337;52.978;6.310;2023-08-31T04:21:43;11.20;99.90
54429;DHT22;40337;52.978;6.310;2023-08-31T04:24:09;11.20;99.90
54429;DHT22;40337;52.978;6.310;2023-08-31T04:26:35;11.20;99.90
54429;DHT22;40337;52.978;6.310;2023-08-31T04:29:02;11.20;99.90
54429;DHT22;40337;52.978;6.310;2023-08-31T04:31:28;11.20;99.90
54429;DHT22;40337;52.978;6.310;2023-08-31T04:33:54;11.20;99.90
54429;DHT22;40337;52.978;6.310;2023-08-31T04:36:21;11.20;99.90
54429;DHT22;40337;52.978;6.310;2023-08-31T04:38:48;11.20;99.90
54429;DHT22;40337;52.978;6.310;2023-08-31T04:41:14;11.20;99.90
54429;DHT22;40337;52.978;6.310;2023-08-31T04:43:40;11.20;99.90
54429;DHT22;40337;52.978;6.310;2023-08-31T04:46:06;11.30;99.90
54429;DHT22;40337;52.978;6.310;2023-08-31T04:48:32;11.30;99.90
54429;DHT22;40337;52.978;6.310;2023-08-31T04:50:58;11.30;99.90
54429;DHT22;40337;52.978;6.310;2023-08-31T04:53:24;11.30;99.90
54429;DHT22;40337;52.978;6.310;2023-08-31T04:55:49;11.30;99.90
54429;DHT22;40337;52.978;6.310;2023-08-31T04:58:15;11.30;99.90
54429;DHT22;40337;52.978;6.310;2023-08-31T05:00:40;11.30;99.90
54429;DHT22;40337;52.978;6.310;2023-08-31T05:03:06;11.30;99.90
54429;DHT22;40337;52.978;6.310;2023-08-31T05:05:32;11.30;99.90
54429;DHT22;40337;52.978;6.310;2023-08-31T05:07:57;11.20;99.90
54429;DHT22;40337;52.978;6.310;2023-08-31T05:10:24;11.30;99.90
54429;DHT22;40337;52.978;6.310;2023-08-31T05:12:49;11.20;99.90
54429;DHT22;40337;52.978;6.310;2023-08-31T05:15:15;11.20;99.90
54429;DHT22;40337;52.978;6.310;2023-08-31T05:17:41;11.30;99.90
54429;DHT22;40337;52.978;6.310;2023-08-31T05:20:07;11.30;99.90
54429;DHT22;40337;52.978;6.310;2023-08-31T05:22:35;11.30;99.90
54429;DHT22;40337;52.978;6.310;2023-08-31T05:25:01;11.30;99.90
54429;DHT22;40337;52.978;6.310;2023-08-31T05:27:26;11.30;99.90
54429;DHT22;40337;52.978;6.310;2023-08-31T05:29:52;11.40;99.90
54429;DHT22;40337;52.978;6.310;2023-08-31T05:32:17;11.30;99.90
54429;DHT22;40337;52.978;6.310;2023-08-31T05:34:43;11.40;99.90
54429;DHT22;40337;52.978;6.310;2023-08-31T05:37:08;11.40;99.90
54429;DHT22;40337;52.978;6.310;2023-08-31T05:39:34;11.50;99.90
54429;DHT22;40337;52.978;6.310;2023-08-31T05:42:00;11.50;99.90
54429;DHT22;40337;52.978;6.310;2023-08-31T05:44:26;11.60;99.90
54429;DHT22;40337;52.978;6.310;2023-08-31T05:46:51;11.60;99.90
54429;DHT22;40337;52.978;6.310;2023-08-31T05:49:17;11.60;99.90
54429;DHT22;40337;52.978;6.310;2023-08-31T05:51:42;11.70;99.90
54429;DHT22;40337;52.978;6.310;2023-08-31T05:54:08;11.70;99.90
54429;DHT22;40337;52.978;6.310;2023-08-31T05:56:38;11.70;99.90
54429;DHT22;40337;52.978;6.310;2023-08-31T05:59:05;11.80;99.90
54429;DHT22;40337;52.978;6.310;2023-08-31T06:01:31;11.80;99.90
54429;DHT22;40337;52.978;6.310;2023-08-31T06:03:57;11.90;99.90
54429;DHT22;40337;52.978;6.310;2023-08-31T06:06:22;11.90;99.90
54429;DHT22;40337;52.978;6.310;2023-08-31T06:08:48;11.90;99.90
54429;DHT22;40337;52.978;6.310;2023-08-31T06:11:14;12.00;99.90
54429;DHT22;40337;52.978;6.310;2023-08-31T06:13:40;12.10;99.90
54429;DHT22;40337;52.978;6.310;2023-08-31T06:16:06;12.10;99.90
54429;DHT22;40337;52.978;6.310;2023-08-31T06:18:32;12.20;99.90
54429;DHT22;40337;52.978;6.310;2023-08-31T06:20:57;12.20;99.90
54429;DHT22;40337;52.978;6.310;2023-08-31T06:23:23;12.30;99.90
54429;DHT22;40337;52.978;6.310;2023-08-31T06:25:49;12.40;99.90
54429;DHT22;40337;52.978;6.310;2023-08-31T06:28:14;12.40;99.90
54429;DHT22;40337;52.978;6.310;2023-08-31T06:30:41;12.50;99.90
54429;DHT22;40337;52.978;6.310;2023-08-31T06:33:12;12.60;99.90
54429;DHT22;40337;52.978;6.310;2023-08-31T06:35:37;12.60;99.90
54429;DHT22;40337;52.978;6.310;2023-08-31T06:38:03;12.70;99.90
54429;DHT22;40337;52.978;6.310;2023-08-31T06:40:28;12.70;99.90
54429;DHT22;40337;52.978;6.310;2023-08-31T06:42:54;12.70;99.90
54429;DHT22;40337;52.978;6.310;2023-08-31T06:45:20;12.80;99.90
54429;DHT22;40337;52.978;6.310;2023-08-31T06:47:45;12.90;99.90
54429;DHT22;40337;52.978;6.310;2023-08-31T06:50:11;12.90;99.90
54429;DHT22;40337;52.978;6.310;2023-08-31T06:52:36;13.00;99.90
54429;DHT22;40337;52.978;6.310;2023-08-31T06:55:02;13.00;99.90
54429;DHT22;40337;52.978;6.310;2023-08-31T06:57:28;13.10;99.90
54429;DHT22;40337;52.978;6.310;2023-08-31T06:59:54;13.10;99.90
54429;DHT22;40337;52.978;6.310;2023-08-31T07:02:19;13.20;99.90
54429;DHT22;40337;52.978;6.310;2023-08-31T07:04:47;13.30;99.90
54429;DHT22;40337;52.978;6.310;2023-08-31T07:07:14;13.40;99.90
54429;DHT22;40337;52.978;6.310;2023-08-31T07:09:43;13.50;99.90
54429;DHT22;40337;52.978;6.310;2023-08-31T07:12:10;13.60;99.90
54429;DHT22;40337;52.978;6.310;2023-08-31T07:14:36;13.70;99.90
54429;DHT22;40337;52.978;6.310;2023-08-31T07:17:03;13.70;99.90
54429;DHT22;40337;52.978;6.310;2023-08-31T07:19:28;13.80;99.90
54429;DHT22;40337;52.978;6.310;2023-08-31T07:21:54;13.80;99.90
54429;DHT22;40337;52.978;6.310;2023-08-31T07:24:23;13.90;99.90
54429;DHT22;40337;52.978;6.310;2023-08-31T07:26:50;14.00;99.90
54429;DHT22;40337;52.978;6.310;2023-08-31T07:29:15;14.20;99.90
54429;DHT22;40337;52.978;6.310;2023-08-31T07:31:41;14.30;99.90
54429;DHT22;40337;52.978;6.310;2023-08-31T07:34:07;14.30;99.90
54429;DHT22;40337;52.978;6.310;2023-08-31T07:36:33;14.30;99.90
54429;DHT22;40337;52.978;6.310;2023-08-31T07:38:59;14.30;99.90
54429;DHT22;40337;52.978;6.310;2023-08-31T07:41:24;14.40;99.90
54429;DHT22;40337;52.978;6.310;2023-08-31T07:43:50;14.60;99.90
54429;DHT22;40337;52.978;6.310;2023-08-31T07:46:17;14.70;99.90
54429;DHT22;40337;52.978;6.310;2023-08-31T07:48:43;14.80;99.90
54429;DHT22;40337;52.978;6.310;2023-08-31T07:51:08;14.80;99.90
54429;DHT22;40337;52.978;6.310;2023-08-31T07:53:34;14.80;99.90
54429;DHT22;40337;52.978;6.310;2023-08-31T07:56:00;14.80;99.90
54429;DHT22;40337;52.978;6.310;2023-08-31T07:58:25;14.80;99.90
54429;DHT22;40337;52.978;6.310;2023-08-31T08:00:55;14.90;99.90
54429;DHT22;40337;52.978;6.310;2023-08-31T08:03:22;15.00;99.90
54429;DHT22;40337;52.978;6.310;2023-08-31T08:05:47;15.10;99.90
54429;DHT22;40337;52.978;6.310;2023-08-31T08:08:13;15.20;99.90
54429;DHT22;40337;52.978;6.310;2023-08-31T08:10:39;15.20;99.90
54429;DHT22;40337;52.978;6.310;2023-08-31T08:13:05;15.30;99.90
54429;DHT22;40337;52.978;6.310;2023-08-31T08:15:31;15.30;99.90
54429;DHT22;40337;52.978;6.310;2023-08-31T08:17:56;15.30;99.90
54429;DHT22;40337;52.978;6.310;2023-08-31T08:20:25;15.30;99.90
54429;DHT22;40337;52.978;6.310;2023-08-31T08:22:50;15.40;99.90
54429;DHT22;40337;52.978;6.310;2023-08-31T08:25:20;15.50;99.90
54429;DHT22;40337;52.978;6.310;2023-08-31T08:27:47;15.60;99.90
54429;DHT22;40337;52.978;6.310;2023-08-31T08:30:13;15.80;99.90
54429;DHT22;40337;52.978;6.310;2023-08-31T08:32:39;16.00;99.90
54429;DHT22;40337;52.978;6.310;2023-08-31T08:35:05;16.10;99.90
54429;DHT22;40337;52.978;6.310;2023-08-31T08:37:31;16.20;99.90
54429;DHT22;40337;52.978;6.310;2023-08-31T08:39:58;16.30;99.90
54429;DHT22;40337;52.978;6.310;2023-08-31T08:42:25;16.40;99.90
54429;DHT22;40337;52.978;6.310;2023-08-31T08:44:51;16.30;99.90
54429;DHT22;40337;52.978;6.310;2023-08-31T08:47:17;16.30;99.90
54429;DHT22;40337;52.978;6.310;2023-08-31T08:49:43;16.30;99.90
54429;DHT22;40337;52.978;6.310;2023-08-31T08:52:09;16.40;99.90
54429;DHT22;40337;52.978;6.310;2023-08-31T08:54:35;16.40;99.90
54429;DHT22;40337;52.978;6.310;2023-08-31T08:57:01;16.30;99.90
54429;DHT22;40337;52.978;6.310;2023-08-31T08:59:26;16.30;99.90
54429;DHT22;40337;52.978;6.310;2023-08-31T09:01:52;16.30;99.90
54429;DHT22;40337;52.978;6.310;2023-08-31T09:04:18;16.40;99.90
54429;DHT22;40337;52.978;6.310;2023-08-31T09:06:44;16.30;99.90
54429;DHT22;40337;52.978;6.310;2023-08-31T09:09:10;16.30;99.90
54429;DHT22;40337;52.978;6.310;2023-08-31T09:11:36;16.10;99.90
54429;DHT22;40337;52.978;6.310;2023-08-31T09:14:18;15.90;99.90
54429;DHT22;40337;52.978;6.310;2023-08-31T09:16:45;15.80;99.90
54429;DHT22;40337;52.978;6.310;2023-08-31T09:19:22;15.60;99.90
54429;DHT22;40337;52.978;6.310;2023-08-31T09:21:49;15.40;99.90
54429;DHT22;40337;52.978;6.310;2023-08-31T09:24:15;15.40;99.90
54429;DHT22;40337;52.978;6.310;2023-08-31T09:26:57;15.80;99.90
54429;DHT22;40337;52.978;6.310;2023-08-31T09:29:23;16.90;99.90
54429;DHT22;40337;52.978;6.310;2023-08-31T09:31:49;18.20;99.90
54429;DHT22;40337;52.978;6.310;2023-08-31T09:34:16;19.20;99.90
54429;DHT22;40337;52.978;6.310;2023-08-31T09:36:42;19.80;99.90
54429;DHT22;40337;52.978;6.310;2023-08-31T09:39:09;20.30;99.90
54429;DHT22;40337;52.978;6.310;2023-08-31T09:41:35;20.10;99.90
54429;DHT22;40337;52.978;6.310;2023-08-31T09:44:17;20.10;99.90
54429;DHT22;40337;52.978;6.310;2023-08-31T09:46:44;20.40;99.90
54429;DHT22;40337;52.978;6.310;2023-08-31T09:49:13;20.80;99.90
54429;DHT22;40337;52.978;6.310;2023-08-31T09:51:41;21.10;99.90
54429;DHT22;40337;52.978;6.310;2023-08-31T09:54:09;21.20;99.90
54429;DHT22;40337;52.978;6.310;2023-08-31T09:56:37;21.20;99.90
54429;DHT22;40337;52.978;6.310;2023-08-31T09:59:03;21.10;99.90
54429;DHT22;40337;52.978;6.310;2023-08-31T10:01:29;20.70;99.90
54429;DHT22;40337;52.978;6.310;2023-08-31T10:03:54;20.50;99.90
54429;DHT22;40337;52.978;6.310;2023-08-31T10:06:22;20.70;99.90
54429;DHT22;40337;52.978;6.310;2023-08-31T10:08:48;20.40;99.90
54429;DHT22;40337;52.978;6.310;2023-08-31T10:11:14;20.50;99.90
54429;DHT22;40337;52.978;6.310;2023-08-31T10:13:41;19.90;99.90
54429;DHT22;40337;52.978;6.310;2023-08-31T10:16:08;19.40;99.90
54429;DHT22;40337;52.978;6.310;2023-08-31T10:18:37;18.90;99.90
54429;DHT22;40337;52.978;6.310;2023-08-31T10:21:03;18.50;99.90
54429;DHT22;40337;52.978;6.310;2023-08-31T10:23:29;18.70;99.90
54429;DHT22;40337;52.978;6.310;2023-08-31T10:28:25;18.60;99.90
54429;DHT22;40337;52.978;6.310;2023-08-31T10:31:01;18.30;99.90
54429;DHT22;40337;52.978;6.310;2023-08-31T10:33:42;18.00;99.90
54429;DHT22;40337;52.978;6.310;2023-08-31T10:36:18;18.20;99.90
54429;DHT22;40337;52.978;6.310;2023-08-31T10:39:00;18.50;99.90
54429;DHT22;40337;52.978;6.310;2023-08-31T10:41:32;19.00;99.90
54429;DHT22;40337;52.978;6.310;2023-08-31T10:43:58;19.40;99.90
54429;DHT22;40337;52.978;6.310;2023-08-31T10:46:32;19.90;99.90
54429;DHT22;40337;52.978;6.310;2023-08-31T10:51:30;20.40;99.90
54429;DHT22;40337;52.978;6.310;2023-08-31T10:54:13;20.70;99.90
54429;DHT22;40337;52.978;6.310;2023-08-31T10:56:54;20.80;99.90
54429;DHT22;40337;52.978;6.310;2023-08-31T10:59:24;20.30;99.90
54429;DHT22;40337;52.978;6.310;2023-08-31T11:01:58;19.90;99.90
54429;DHT22;40337;52.978;6.310;2023-08-31T11:04:26;19.40;99.90
54429;DHT22;40337;52.978;6.310;2023-08-31T11:07:17;19.10;99.90
54429;DHT22;40337;52.978;6.310;2023-08-31T11:09:44;18.70;99.90
54429;DHT22;40337;52.978;6.310;2023-08-31T11:12:10;18.30;99.90
54429;DHT22;40337;52.978;6.310;2023-08-31T11:14:37;18.00;99.90
54429;DHT22;40337;52.978;6.310;2023-08-31T11:17:03;17.70;99.90
54429;DHT22;40337;52.978;6.310;2023-08-31T11:19:31;17.40;99.90
54429;DHT22;40337;52.978;6.310;2023-08-31T11:21:57;17.10;99.90
54429;DHT22;40337;52.978;6.310;2023-08-31T11:24:23;17.00;99.90
54429;DHT22;40337;52.978;6.310;2023-08-31T11:26:51;17.40;99.90
54429;DHT22;40337;52.978;6.310;2023-08-31T11:29:17;18.10;99.90
54429;DHT22;40337;52.978;6.310;2023-08-31T11:31:43;18.60;99.90
54429;DHT22;40337;52.978;6.310;2023-08-31T11:34:14;19.20;99.90
54429;DHT22;40337;52.978;6.310;2023-08-31T11:36:44;19.70;99.90
54429;DHT22;40337;52.978;6.310;2023-08-31T11:39:10;20.00;99.90
54429;DHT22;40337;52.978;6.310;2023-08-31T11:41:36;20.20;99.90
54429;DHT22;40337;52.978;6.310;2023-08-31T11:44:07;20.60;99.90
54429;DHT22;40337;52.978;6.310;2023-08-31T11:46:34;20.50;99.90
54429;DHT22;40337;52.978;6.310;2023-08-31T11:49:00;20.20;99.90
54429;DHT22;40337;52.978;6.310;2023-08-31T11:51:26;19.80;99.90
54429;DHT22;40337;52.978;6.310;2023-08-31T11:53:55;19.40;99.90
54429;DHT22;40337;52.978;6.310;2023-08-31T11:56:21;19.60;99.90
54429;DHT22;40337;52.978;6.310;2023-08-31T11:58:50;19.80;99.90
54429;DHT22;40337;52.978;6.310;2023-08-31T12:01:22;19.60;99.90
54429;DHT22;40337;52.978;6.310;2023-08-31T12:03:47;19.30;99.90
54429;DHT22;40337;52.978;6.310;2023-08-31T12:06:17;19.60;99.90
54429;DHT22;40337;52.978;6.310;2023-08-31T12:08:47;20.10;99.90
54429;DHT22;40337;52.978;6.310;2023-08-31T12:11:14;20.60;99.90
54429;DHT22;40337;52.978;6.310;2023-08-31T12:13:40;21.10;99.90
54429;DHT22;40337;52.978;6.310;2023-08-31T12:16:11;21.40;99.90
54429;DHT22;40337;52.978;6.310;2023-08-31T12:18:37;21.10;99.90
54429;DHT22;40337;52.978;6.310;2023-08-31T12:21:03;20.60;99.90
54429;DHT22;40337;52.978;6.310;2023-08-31T12:23:30;20.30;99.90
54429;DHT22;40337;52.978;6.310;2023-08-31T12:25:55;20.00;99.90
54429;DHT22;40337;52.978;6.310;2023-08-31T12:28:22;20.50;99.90
54429;DHT22;40337;52.978;6.310;2023-08-31T12:33:16;20.50;99.90
54429;DHT22;40337;52.978;6.310;2023-08-31T12:35:41;20.10;99.90
54429;DHT22;40337;52.978;6.310;2023-08-31T12:38:07;19.50;99.90
54429;DHT22;40337;52.978;6.310;2023-08-31T12:40:32;19.30;99.90
54429;DHT22;40337;52.978;6.310;2023-08-31T12:42:58;19.00;99.90
54429;DHT22;40337;52.978;6.310;2023-08-31T12:45:23;18.70;99.90
54429;DHT22;40337;52.978;6.310;2023-08-31T12:47:49;18.60;99.90
54429;DHT22;40337;52.978;6.310;2023-08-31T12:50:15;18.50;99.90
54429;DHT22;40337;52.978;6.310;2023-08-31T12:52:40;18.50;99.90
54429;DHT22;40337;52.978;6.310;2023-08-31T12:55:10;18.90;99.90
54429;DHT22;40337;52.978;6.310;2023-08-31T12:57:36;19.50;99.90
54429;DHT22;40337;52.978;6.310;2023-08-31T13:00:02;19.50;99.90
54429;DHT22;40337;52.978;6.310;2023-08-31T13:02:30;19.30;99.90
54429;DHT22;40337;52.978;6.310;2023-08-31T13:04:56;18.90;99.90
54429;DHT22;40337;52.978;6.310;2023-08-31T13:07:21;18.70;99.90
54429;DHT22;40337;52.978;6.310;2023-08-31T13:09:47;18.70;99.90
54429;DHT22;40337;52.978;6.310;2023-08-31T13:12:12;18.80;99.90
54429;DHT22;40337;52.978;6.310;2023-08-31T13:14:38;19.20;99.90
54429;DHT22;40337;52.978;6.310;2023-08-31T13:17:04;19.70;99.90
54429;DHT22;40337;52.978;6.310;2023-08-31T13:19:30;19.80;99.90
54429;DHT22;40337;52.978;6.310;2023-08-31T13:21:56;19.90;99.90
54429;DHT22;40337;52.978;6.310;2023-08-31T13:24:21;19.90;99.90
54429;DHT22;40337;52.978;6.310;2023-08-31T13:26:47;19.70;99.90
54429;DHT22;40337;52.978;6.310;2023-08-31T13:29:14;19.60;99.90
54429;DHT22;40337;52.978;6.310;2023-08-31T13:31:42;19.70;99.90
54429;DHT22;40337;52.978;6.310;2023-08-31T13:34:08;19.80;99.90
54429;DHT22;40337;52.978;6.310;2023-08-31T13:36:34;19.90;99.90
54429;DHT22;40337;52.978;6.310;2023-08-31T13:39:00;19.70;99.90
54429;DHT22;40337;52.978;6.310;2023-08-31T13:41:25;19.50;99.90
54429;DHT22;40337;52.978;6.310;2023-08-31T13:43:51;19.60;99.90
54429;DHT22;40337;52.978;6.310;2023-08-31T13:46:17;19.70;99.90
54429;DHT22;40337;52.978;6.310;2023-08-31T13:48:43;20.10;99.90
54429;DHT22;40337;52.978;6.310;2023-08-31T13:51:09;20.50;99.90
54429;DHT22;40337;52.978;6.310;2023-08-31T13:53:35;21.00;99.90
54429;DHT22;40337;52.978;6.310;2023-08-31T13:56:00;21.40;99.90
54429;DHT22;40337;52.978;6.310;2023-08-31T13:58:27;21.80;99.90
54429;DHT22;40337;52.978;6.310;2023-08-31T14:00:52;22.10;99.90
54429;DHT22;40337;52.978;6.310;2023-08-31T14:03:18;22.10;99.90
54429;DHT22;40337;52.978;6.310;2023-08-31T14:05:48;21.90;99.90
54429;DHT22;40337;52.978;6.310;2023-08-31T14:08:14;21.30;99.90
54429;DHT22;40337;52.978;6.310;2023-08-31T14:10:40;20.70;99.90
54429;DHT22;40337;52.978;6.310;2023-08-31T14:13:05;19.90;99.90
54429;DHT22;40337;52.978;6.310;2023-08-31T14:15:31;19.40;99.90
54429;DHT22;40337;52.978;6.310;2023-08-31T14:17:56;19.10;99.90
54429;DHT22;40337;52.978;6.310;2023-08-31T14:20:22;18.90;99.90
54429;DHT22;40337;52.978;6.310;2023-08-31T14:22:48;18.90;99.90
54429;DHT22;40337;52.978;6.310;2023-08-31T14:25:14;19.10;99.90
54429;DHT22;40337;52.978;6.310;2023-08-31T14:27:40;19.20;99.90
54429;DHT22;40337;52.978;6.310;2023-08-31T14:30:06;19.40;99.90
54429;DHT22;40337;52.978;6.310;2023-08-31T14:32:32;19.60;99.90
54429;DHT22;40337;52.978;6.310;2023-08-31T14:34:58;19.60;99.90
54429;DHT22;40337;52.978;6.310;2023-08-31T14:37:23;19.80;99.90
54429;DHT22;40337;52.978;6.310;2023-08-31T14:39:50;19.90;99.90
54429;DHT22;40337;52.978;6.310;2023-08-31T14:42:15;20.00;99.90
54429;DHT22;40337;52.978;6.310;2023-08-31T14:44:42;20.20;99.90
54429;DHT22;40337;52.978;6.310;2023-08-31T14:47:09;20.20;99.90
54429;DHT22;40337;52.978;6.310;2023-08-31T14:49:39;20.40;99.90
54429;DHT22;40337;52.978;6.310;2023-08-31T14:52:05;20.40;99.90
54429;DHT22;40337;52.978;6.310;2023-08-31T14:54:31;20.40;99.90
54429;DHT22;40337;52.978;6.310;2023-08-31T14:56:57;20.50;99.90
54429;DHT22;40337;52.978;6.310;2023-08-31T14:59:23;20.40;99.90
54429;DHT22;40337;52.978;6.310;2023-08-31T15:01:49;20.40;99.90
54429;DHT22;40337;52.978;6.310;2023-08-31T15:04:15;20.40;99.90
54429;DHT22;40337;52.978;6.310;2023-08-31T15:06:41;20.50;99.90
54429;DHT22;40337;52.978;6.310;2023-08-31T15:09:07;20.60;99.90
54429;DHT22;40337;52.978;6.310;2023-08-31T15:11:32;20.40;99.90
54429;DHT22;40337;52.978;6.310;2023-08-31T15:13:58;20.10;99.90
54429;DHT22;40337;52.978;6.310;2023-08-31T15:16:24;20.10;99.90
54429;DHT22;40337;52.978;6.310;2023-08-31T15:18:50;20.20;99.90
54429;DHT22;40337;52.978;6.310;2023-08-31T15:21:16;20.40;99.90
54429;DHT22;40337;52.978;6.310;2023-08-31T15:23:45;20.60;99.90
54429;DHT22;40337;52.978;6.310;2023-08-31T15:26:11;20.70;99.90
54429;DHT22;40337;52.978;6.310;2023-08-31T15:28:38;20.70;99.90
54429;DHT22;40337;52.978;6.310;2023-08-31T15:31:04;20.70;99.90
54429;DHT22;40337;52.978;6.310;2023-08-31T15:33:29;20.40;99.90
54429;DHT22;40337;52.978;6.310;2023-08-31T15:36:07;20.20;99.90
54429;DHT22;40337;52.978;6.310;2023-08-31T15:38:34;20.00;99.90
54429;DHT22;40337;52.978;6.310;2023-08-31T15:41:01;20.00;99.90